^^
Station Historical Data
Daily Summary for March 6, 2017 Units:  English    Metric   Both
« Previous Day
Next Day »
Daily Weekly Monthly Yearly Custom
  High: Low: Average:
Temperature: 43.4 °F 18.9 °F 31.8 °F
Dew Point: 28.4 °F 1.3 °F 11.9 °F
Humidity: 68% 27% 45%
Wind Speed: 5.0mph 0.0mph 0.7mph
Wind Gust: 12.0mph - -
Wind- - SSW
Pressure: 30.58 in 30.44 in -
Precipitation: 0.00 in    
Historical Graphs
 
 
Tabular Data for March 6, 2017
Time Temperature Dew Point Pressure Wind Wind Speed Wind Gust Humidity Rainfall Rate (Hourly) Conditions
00:00 24.6 °F 3.7 °F 30.56 in Calm   1.0 mph 40% 0.00 in CLR
00:15 24.1 °F 3.8 °F 30.56 in Calm   1.0 mph 41% 0.00 in CLR
00:30 23.4 °F 3.6 °F 30.56 in Calm   1.0 mph 42% 0.00 in CLR
00:45 23.5 °F 2.1 °F 30.56 in Calm   2.0 mph 39% 0.00 in CLR
01:00 23.3 °F 1.9 °F 30.56 in Calm   3.0 mph 39% 0.00 in CLR
02:15 21.2 °F 2.2 °F 30.55 in Calm   3.0 mph 43% 0.00 in CLR
02:30 20.1 °F 2.1 °F 30.54 in Calm     45% 0.00 in CLR
02:45 19.1 °F 2.6 °F 30.54 in Calm     48% 0.00 in CLR
03:00 19.1 °F 1.7 °F 30.54 in Calm     46% 0.00 in CLR
03:15 18.9 °F 2.0 °F 30.55 in Calm     47% 0.00 in CLR
03:30 19.5 °F 1.6 °F 30.55 in Calm   1.0 mph 45% 0.00 in CLR
03:45 19.2 °F 1.3 °F 30.56 in Calm   1.0 mph 45% 0.00 in CLR
04:00 19.8 °F 1.8 °F 30.57 in Calm   1.0 mph 45% 0.00 in CLR
04:15 20.2 °F 1.7 °F 30.56 in Calm   2.0 mph 44% 0.00 in CLR
04:30 20.0 °F 1.5 °F 30.58 in Calm   1.0 mph 44% 0.00 in CLR
04:45 20.4 °F 1.9 °F 30.57 in Calm   3.0 mph 44% 0.00 in CLR
05:00 20.1 °F 2.1 °F 30.57 in Calm   2.0 mph 45% 0.00 in CLR
05:15 20.5 °F 2.5 °F 30.57 in Calm   1.0 mph 45% 0.00 in CLR
05:30 20.6 °F 4.0 °F 30.57 in Calm   1.0 mph 48% 0.00 in CLR
05:45 20.5 °F 4.3 °F 30.57 in Calm   1.0 mph 49% 0.00 in CLR
06:00 20.5 °F 5.2 °F 30.57 in Calm   4.0 mph 51% 0.00 in CLR
06:15 20.2 °F 4.1 °F 30.57 in Calm   3.0 mph 49% 0.00 in CLR
06:30 20.0 °F 3.5 °F 30.57 in Calm   3.0 mph 48% 0.00 in CLR
06:45 20.2 °F 2.2 °F 30.57 in Calm   3.0 mph 45% 0.00 in CLR
07:00 20.3 °F 2.3 °F 30.57 in Calm   3.0 mph 45% 0.00 in CLR
07:15 20.7 °F 2.7 °F 30.58 in NNW 2.0 mph 5.0 mph 45% 0.00 in CLR
07:30 21.4 °F 2.3 °F 30.57 in Calm   3.0 mph 43% 0.00 in CLR
07:45 22.1 °F 2.9 °F 30.57 in Calm   1.0 mph 43% 0.00 in CLR
08:00 22.5 °F 3.3 °F 30.57 in Calm   1.0 mph 43% 0.00 in CLR
08:15 23.2 °F 4.5 °F 30.57 in Calm   1.0 mph 44% 0.00 in CLR
08:30 23.6 °F 4.3 °F 30.57 in Calm   3.0 mph 43% 0.00 in CLR
08:45 24.5 °F 5.7 °F 30.57 in Calm   3.0 mph 44% 0.00 in CLR
09:00 25.5 °F 7.6 °F 30.58 in Calm   4.0 mph 46% 0.00 in CLR
09:15 26.6 °F 8.6 °F 30.58 in Calm   2.0 mph 46% 0.00 in CLR
09:30 27.5 °F 6.8 °F 30.58 in Calm   3.0 mph 41% 0.00 in CLR
09:45 29.2 °F 6.1 °F 30.57 in Calm   2.0 mph 37% 0.00 in CLR
10:00 29.3 °F 6.2 °F 30.57 in WSW 2.0 mph 6.0 mph 37% 0.00 in CLR
10:15 29.6 °F 7.1 °F 30.57 in SW 3.0 mph 6.0 mph 38% 0.00 in CLR
10:30 30.6 °F 6.8 °F 30.57 in WNW 1.0 mph 5.0 mph 36% 0.00 in CLR
10:45 31.9 °F 7.3 °F 30.55 in Calm   2.0 mph 35% 0.00 in CLR
11:00 33.8 °F 4.8 °F 30.55 in Calm   4.0 mph 29% 0.00 in CLR
11:15 35.6 °F 5.6 °F 30.55 in Calm   2.0 mph 28% 0.00 in CLR
11:30 35.2 °F 6.0 °F 30.54 in WNW 2.0 mph 6.0 mph 29% 0.00 in CLR
11:45 35.9 °F 7.4 °F 30.54 in WSW 2.0 mph 6.0 mph 30% 0.00 in CLR
12:00 36.8 °F 8.2 °F 30.53 in South 3.0 mph 7.0 mph 30% 0.00 in CLR
12:15 37.9 °F 9.2 °F 30.52 in SW 1.0 mph 7.0 mph 30% 0.00 in CLR
12:30 38.6 °F 9.8 °F 30.51 in SW 2.0 mph 8.0 mph 30% 0.00 in CLR
12:45 39.4 °F 9.8 °F 30.50 in SW 2.0 mph 8.0 mph 29% 0.00 in CLR
13:00 39.9 °F 10.9 °F 30.50 in SSW 3.0 mph 8.0 mph 30% 0.00 in CLR
13:15 40.9 °F 11.8 °F 30.49 in South 2.0 mph 7.0 mph 30% 0.00 in CLR
13:30 41.5 °F 11.6 °F 30.48 in South 2.0 mph 8.0 mph 29% 0.00 in CLR
13:45 42.1 °F 12.0 °F 30.48 in SSW 1.0 mph 9.0 mph 29% 0.00 in CLR
14:00 42.5 °F 11.6 °F 30.47 in South 2.0 mph 8.0 mph 28% 0.00 in CLR
14:15 42.5 °F 12.4 °F 30.47 in SW 3.0 mph 12.0 mph 29% 0.00 in CLR
14:30 43.4 °F 11.6 °F 30.47 in SSW 5.0 mph 10.0 mph 27% 0.00 in CLR
14:45 42.6 °F 11.8 °F 30.47 in SW 3.0 mph 12.0 mph 28% 0.00 in CLR
15:00 43.1 °F 12.2 °F 30.47 in South 2.0 mph 7.0 mph 28% 0.00 in CLR
15:15 42.7 °F 11.8 °F 30.46 in SSW 2.0 mph 9.0 mph 28% 0.00 in CLR
15:30 42.8 °F 13.4 °F 30.46 in SSW 2.0 mph 6.0 mph 30% 0.00 in CLR
15:45 42.8 °F 14.2 °F 30.45 in SSW 3.0 mph 8.0 mph 31% 0.00 in CLR
16:00 42.6 °F 14.0 °F 30.45 in South 1.0 mph 5.0 mph 31% 0.00 in CLR
16:15 42.4 °F 16.6 °F 30.45 in SW 1.0 mph 6.0 mph 35% 0.00 in BKN
16:30 42.2 °F 15.8 °F 30.45 in SSW 1.0 mph 4.0 mph 34% 0.00 in BKN
16:45 41.6 °F 16.0 °F 30.45 in SW 1.0 mph 5.0 mph 35% 0.00 in BKN
17:00 41.3 °F 18.2 °F 30.45 in SSW 1.0 mph 7.0 mph 39% 0.00 in BKN
17:15 40.6 °F 19.3 °F 30.45 in South 1.0 mph 7.0 mph 42% 0.00 in BKN
17:30 39.9 °F 19.2 °F 30.45 in Calm   6.0 mph 43% 0.00 in BKN
17:45 39.1 °F 20.0 °F 30.45 in South 3.0 mph 8.0 mph 46% 0.00 in BKN
18:00 38.3 °F 20.3 °F 30.46 in SSE 1.0 mph 7.0 mph 48% 0.00 in BKN
18:15 37.8 °F 20.8 °F 30.46 in South 1.0 mph 6.0 mph 50% 0.00 in BKN
18:30 37.4 °F 20.9 °F 30.46 in SSW 1.0 mph 4.0 mph 51% 0.00 in BKN
18:45 37.1 °F 20.6 °F 30.46 in SSE 1.0 mph 6.0 mph 51% 0.00 in BKN
19:00 36.8 °F 21.3 °F 30.46 in South 3.0 mph 9.0 mph 53% 0.00 in BKN
19:15 36.6 °F 21.9 °F 30.47 in Calm   6.0 mph 55% 0.00 in BKN
19:30 36.4 °F 22.6 °F 30.46 in Calm   2.0 mph 57% 0.00 in BKN
19:45 36.0 °F 23.0 °F 30.46 in Calm   1.0 mph 59% 0.00 in BKN
20:00 35.6 °F 23.9 °F 30.46 in SSW 1.0 mph 2.0 mph 62% 0.00 in BKN
20:15 35.5 °F 24.5 °F 30.46 in Calm   1.0 mph 64% 0.00 in BKN
20:30 35.9 °F 25.3 °F 30.46 in Calm   2.0 mph 65% 0.00 in BKN
20:45 36.4 °F 25.8 °F 30.46 in Calm   3.0 mph 65% 0.00 in BKN
21:00 36.9 °F 25.9 °F 30.46 in SSE 1.0 mph 4.0 mph 64% 0.00 in BKN
21:15 37.1 °F 26.0 °F 30.46 in Calm   4.0 mph 64% 0.00 in SCT
21:30 37.2 °F 26.1 °F 30.46 in Calm   4.0 mph 64% 0.00 in SCT
21:45 37.4 °F 26.7 °F 30.46 in Calm   2.0 mph 65% 0.00 in SCT
22:00 37.6 °F 26.9 °F 30.46 in Calm   1.0 mph 65% 0.00 in SCT
22:15 37.7 °F 27.4 °F 30.45 in Calm   1.0 mph 66% 0.00 in OVC
22:30 37.7 °F 27.3 °F 30.45 in Calm   1.0 mph 66% 0.00 in OVC
22:45 37.7 °F 27.7 °F 30.45 in Calm   1.0 mph 67% 0.00 in OVC
23:00 37.8 °F 28.2 °F 30.45 in Calm   3.0 mph 68% 0.00 in OVC
23:15 37.9 °F 28.3 °F 30.45 in Calm   3.0 mph 68% 0.00 in BKN
23:30 38.0 °F 28.4 °F 30.44 in Calm   3.0 mph 68% 0.00 in BKN
23:45 38.1 °F 28.1 °F 30.44 in Calm   3.0 mph 67% 0.00 in BKN
TarryTown NY Weather
Compliments of Weather Underground - 1.5 mb